Wheatfield, Indiana
Current Conditions -  °F | °C
As of 7:35 PM on Saturday 25 Oct 2014 (Local Time) from KRZL Reporting Station
Clear Clear  
Wind Chill: 59°   Ceiling: Unl
Heat Index: 59°   Visibility: 10mi
Dew Point: 34°   Wind: 7mph
Humidity: 39%   Direction: 270°W
Pressure: 29.94"   Gusts: NA
Location:  41.19°N, 87.06°W
Report Text: KRZL 260035Z AUTO 27006KT 10SM CLR 15/01 A2994 RMK AO2
Loading
Personal Weather Stations






























Interactive Weather Map
Tropical Storm Tracking
New forecast layout! Learn more

10-Day Weather Forecast

Advertisements
Track Severe Weather on mobile